sensor_id;sensor_type;location;lat;lon;timestamp;pressure;altitude;pressure_sealevel;temperature;humidity
15558;BME280;7880;50.110;9.372;2023-08-31T00:04:40;12.428661497455323;;;12.437;100.0
15558;BME280;7880;50.110;9.372;2023-08-31T00:09:45;12.438746322138467;;;12.437;100.0
15558;BME280;7880;50.110;9.372;2023-08-31T00:14:55;12.489170463016489;;;12.437;100.0
15558;BME280;7880;50.110;9.372;2023-08-31T00:20:00;12.469000803172822;;;12.437;100.0
15558;BME280;7880;50.110;9.372;2023-08-31T00:25:08;12.479085632512579;;;12.437;100.0
15558;BME280;7880;50.110;9.372;2023-08-31T00:30:09;12.529509796673665;;;12.5;100.0
15558;BME280;7880;50.110;9.372;2023-08-31T00:35:26;12.534552214690484;;;12.5;100.0
15558;BME280;7880;50.110;9.372;2023-08-31T00:40:55;12.554721889668144;;;12.5;100.0
15558;BME280;7880;50.110;9.372;2023-08-31T00:46:28;12.584976410865783;;;12.562;100.0
15558;BME280;7880;50.110;9.372;2023-08-31T00:51:18;12.514382544369436;;;12.5;100.0
15558;BME280;7880;50.110;9.372;2023-08-31T00:56:21;12.469000803172822;;;12.5;100.0
15558;BME280;7880;50.110;9.372;2023-08-31T01:01:37;12.534552214690484;;;12.5;100.0
15558;BME280;7880;50.110;9.372;2023-08-31T01:06:41;12.534552214690484;;;12.437;100.0
15558;BME280;7880;50.110;9.372;2023-08-31T01:11:44;12.519424961513142;;;12.5;100.0
15558;BME280;7880;50.110;9.372;2023-08-31T01:16:39;12.448831147985766;;;12.437;100.0
15558;BME280;7880;50.110;9.372;2023-08-31T01:21:58;12.398407030390809;;;12.375;100.0
15558;BME280;7880;50.110;9.372;2023-08-31T01:27:02;12.453873561345972;;;12.437;100.0
15558;BME280;7880;50.110;9.372;2023-08-31T01:32:06;12.544637051597238;;;12.5;100.0
15558;BME280;7880;50.110;9.372;2023-08-31T01:37:31;12.398407030390809;;;12.375;100.0
15558;BME280;7880;50.110;9.372;2023-08-31T01:42:37;12.453873561345972;;;12.375;100.0
15558;BME280;7880;50.110;9.372;2023-08-31T01:47:34;12.398407030390809;;;12.375;100.0
15558;BME280;7880;50.110;9.372;2023-08-31T01:52:53;12.403449440840632;;;12.375;100.0
15558;BME280;7880;50.110;9.372;2023-08-31T01:57:43;12.438746322138467;;;12.375;100.0
15558;BME280;7880;50.110;9.372;2023-08-31T02:02:47;12.33285572102759;;;12.312;100.0
15558;BME280;7880;50.110;9.372;2023-08-31T02:07:55;12.474043217697181;;;12.375;100.0
15558;BME280;7880;50.110;9.372;2023-08-31T02:13:00;12.428661497455323;;;12.437;100.0
15558;BME280;7880;50.110;9.372;2023-08-31T02:18:11;12.398407030390809;;;12.375;100.0
15558;BME280;7880;50.110;9.372;2023-08-31T02:23:22;12.469000803172822;;;12.375;100.0
15558;BME280;7880;50.110;9.372;2023-08-31T02:28:20;12.307643692061538;;;12.312;100.0
15558;BME280;7880;50.110;9.372;2023-08-31T02:33:26;12.388322210364276;;;12.312;100.0
15558;BME280;7880;50.110;9.372;2023-08-31T02:38:37;12.297558882512385;;;12.312;100.0
15558;BME280;7880;50.110;9.372;2023-08-31T02:43:42;12.242092450801284;;;12.25;100.0
15558;BME280;7880;50.110;9.372;2023-08-31T02:48:50;12.267304460849846;;;12.25;100.0
15558;BME280;7880;50.110;9.372;2023-08-31T02:53:50;12.221922848001123;;;12.25;100.0
15558;BME280;7880;50.110;9.372;2023-08-31T02:59:00;12.24713485222892;;;12.187;100.0
15558;BME280;7880;50.110;9.372;2023-08-31T03:04:03;12.171498861373403;;;12.125;100.0
15558;BME280;7880;50.110;9.372;2023-08-31T03:09:08;12.105947722267592;;;12.125;100.0
15558;BME280;7880;50.110;9.372;2023-08-31T03:14:16;12.085778150899568;;;12.062;100.0
15558;BME280;7880;50.110;9.372;2023-08-31T03:19:17;12.267304460849846;;;12.25;100.0
15558;BME280;7880;50.110;9.372;2023-08-31T03:24:24;12.136202088050776;;;12.125;100.0
15558;BME280;7880;50.110;9.372;2023-08-31T03:29:35;12.070650975429453;;;12.062;100.0
15558;BME280;7880;50.110;9.372;2023-08-31T03:34:43;12.126117298292229;;;12.125;100.0
15558;BME280;7880;50.110;9.372;2023-08-31T03:39:47;12.090820543305018;;;12.062;100.0
15558;BME280;7880;50.110;9.372;2023-08-31T03:44:49;12.211838048347271;;;12.187;100.0
15558;BME280;7880;50.110;9.372;2023-08-31T03:50:05;12.216880448028679;;;12.187;100.0
15558;BME280;7880;50.110;9.372;2023-08-31T03:55:09;12.171498861373403;;;12.187;100.0
15558;BME280;7880;50.110;9.372;2023-08-31T04:00:25;12.206795648956904;;;12.187;100.0
15558;BME280;7880;50.110;9.372;2023-08-31T04:05:24;12.307643692061538;;;12.312;100.0
15558;BME280;7880;50.110;9.372;2023-08-31T04:10:46;12.090820543305018;;;12.125;100.0
15558;BME280;7880;50.110;9.372;2023-08-31T04:15:35;12.176541258726502;;;12.187;100.0
15558;BME280;7880;50.110;9.372;2023-08-31T04:20:37;12.105947722267592;;;12.125;100.0
15558;BME280;7880;50.110;9.372;2023-08-31T04:25:55;12.055523802578682;;;12.062;100.0
15558;BME280;7880;50.110;9.372;2023-08-31T04:30:57;12.126117298292229;;;12.125;100.0
15558;BME280;7880;50.110;9.372;2023-08-31T04:36:10;12.04543902213336;;;12.062;100.0
15558;BME280;7880;50.110;9.372;2023-08-31T04:41:17;11.995015137369046;;;12.0;100.0
15558;BME280;7880;50.110;9.372;2023-08-31T04:46:28;12.04543902213336;;;12.0;100.0
15558;BME280;7880;50.110;9.372;2023-08-31T04:51:32;11.924421747593442;;;11.875;100.0
15558;BME280;7880;50.110;9.372;2023-08-31T04:56:50;12.015184687782313;;;11.937;100.0
15558;BME280;7880;50.110;9.372;2023-08-31T05:00:51;12.03535424285219;;;12.0;100.0
15558;BME280;7880;50.110;9.372;2023-08-31T05:05:52;11.995015137369046;;;11.937;100.0
15558;BME280;7880;50.110;9.372;2023-08-31T05:10:56;11.974845591612393;;;11.937;100.0
15558;BME280;7880;50.110;9.372;2023-08-31T05:16:03;12.025269464735175;;;12.0;100.0
15558;BME280;7880;50.110;9.372;2023-08-31T05:21:09;11.899209836497903;;;11.875;100.0
15558;BME280;7880;50.110;9.372;2023-08-31T05:26:09;11.884082693333038;;;11.875;100.0
15558;BME280;7880;50.110;9.372;2023-08-31T05:31:16;11.959718435350805;;;11.937;100.0
15558;BME280;7880;50.110;9.372;2023-08-31T05:36:21;11.944591281708563;;;11.875;100.0
15558;BME280;7880;50.110;9.372;2023-08-31T05:41:25;11.959718435350805;;;11.937;100.0
15558;BME280;7880;50.110;9.372;2023-08-31T05:46:30;11.984930363908642;;;11.937;100.0
15558;BME280;7880;50.110;9.372;2023-08-31T05:51:36;12.010142299742437;;;11.937;100.0
15558;BME280;7880;50.110;9.372;2023-08-31T05:56:41;11.974845591612393;;;11.937;100.0
15558;BME280;7880;50.110;9.372;2023-08-31T06:01:44;12.050481412210502;;;12.0;100.0
15558;BME280;7880;50.110;9.372;2023-08-31T06:07:03;12.171498861373403;;;12.125;100.0
15558;BME280;7880;50.110;9.372;2023-08-31T06:11:52;12.146286878973479;;;12.062;100.0
15558;BME280;7880;50.110;9.372;2023-08-31T06:16:57;12.000057524535805;;;11.937;100.0
15558;BME280;7880;50.110;9.372;2023-08-31T06:22:01;12.075693366961787;;;12.0;100.0
15558;BME280;7880;50.110;9.372;2023-08-31T06:27:05;12.055523802578682;;;12.0;100.0
15558;BME280;7880;50.110;9.372;2023-08-31T06:32:11;12.0605661932379;;;12.0;100.0
15558;BME280;7880;50.110;9.372;2023-08-31T06:37:16;12.206795648956904;;;12.125;100.0
15558;BME280;7880;50.110;9.372;2023-08-31T06:42:23;12.156371671060333;;;12.125;100.0
15558;BME280;7880;50.110;9.372;2023-08-31T06:47:29;12.161414067540317;;;12.062;100.0
15558;BME280;7880;50.110;9.372;2023-08-31T06:52:31;12.257219655957305;;;12.125;100.0
15558;BME280;7880;50.110;9.372;2023-08-31T06:57:37;12.307643692061538;;;12.25;100.0
15558;BME280;7880;50.110;9.372;2023-08-31T07:02:42;12.126117298292229;;;12.125;100.0
15558;BME280;7880;50.110;9.372;2023-08-31T07:07:48;12.327813314652303;;;12.25;100.0
15558;BME280;7880;50.110;9.372;2023-08-31T07:12:52;12.408491851581493;;;12.375;100.0
15558;BME280;7880;50.110;9.372;2023-08-31T07:17:57;12.388322210364276;;;12.375;100.0
15558;BME280;7880;50.110;9.372;2023-08-31T07:23:01;12.277389266906539;;;12.25;100.0
15558;BME280;7880;50.110;9.372;2023-08-31T07:28:14;12.499255294684554;;;12.375;100.0
15558;BME280;7880;50.110;9.372;2023-08-31T07:33:14;12.741291603964054;;;12.562;100.0
15558;BME280;7880;50.110;9.372;2023-08-31T07:38:16;12.832055392820621;;;12.687;100.0
15558;BME280;7880;50.110;9.372;2023-08-31T07:43:23;12.937946599000133;;;12.812;100.0
15558;BME280;7880;50.110;9.372;2023-08-31T07:48:30;13.124517131695757;;;13.0;100.0
15558;BME280;7880;50.110;9.372;2023-08-31T07:53:35;13.174941668385873;;;13.062;100.0
15558;BME280;7880;50.110;9.372;2023-08-31T07:58:38;13.03879548611585;;;13.062;100.0
15558;BME280;7880;50.110;9.372;2023-08-31T08:03:47;13.114432227850193;;;13.125;100.0
15558;BME280;7880;50.110;9.372;2023-08-31T08:08:48;13.008540807757527;;;12.937;100.0
15558;BME280;7880;50.110;9.372;2023-08-31T08:13:51;13.119474679627455;;;13.062;100.0
15558;BME280;7880;50.110;9.372;2023-08-31T08:19:00;13.331257917080075;;;13.187;100.0
15558;BME280;7880;50.110;9.372;2023-08-31T08:23:59;13.104347325168783;;;13.062;100.0
15558;BME280;7880;50.110;9.372;2023-08-31T08:29:03;13.069050174951553;;;13.0;100.0
15558;BME280;7880;50.110;9.372;2023-08-31T08:34:08;13.275790829077597;;;13.125;100.0
15558;BME280;7880;50.110;9.372;2023-08-31T08:39:13;13.638848771486664;;;13.5;100.0
15558;BME280;7880;50.110;9.372;2023-08-31T08:44:21;13.512786814942956;;;13.5;100.0
15558;BME280;7880;50.110;9.372;2023-08-31T08:49:55;13.366555173235247;;;13.437;100.0
15558;BME280;7880;50.110;9.372;2023-08-31T08:55:01;14.01199322892935;;;13.75;100.0
15558;BME280;7880;50.110;9.372;2023-08-31T09:00:05;14.032163245003904;;;13.875;100.0
15558;BME280;7880;50.110;9.372;2023-08-31T09:05:08;13.911143218405778;;;13.812;100.0
15558;BME280;7880;50.110;9.372;2023-08-31T09:10:12;13.840548280306393;;;13.75;100.0
15558;BME280;7880;50.110;9.372;2023-08-31T09:15:20;14.107800846756437;;;14.0;100.0
15558;BME280;7880;50.110;9.372;2023-08-31T09:20:30;13.815335816238075;;;13.75;100.0
15558;BME280;7880;50.110;9.372;2023-08-31T09:25:28;13.95652570873499;;;13.937;100.0
15558;BME280;7880;50.110;9.372;2023-08-31T09:30:35;14.1279708849499;;;14.0;100.0
15558;BME280;7880;50.110;9.372;2023-08-31T09:35:47;14.264118764555315;;;14.125;100.0
15558;BME280;7880;50.110;9.372;2023-08-31T09:40:42;14.112843355868245;;;14.0;100.0
15558;BME280;7880;50.110;9.372;2023-08-31T09:45:48;14.707861474441597;;;14.5;100.0
15558;BME280;7880;50.110;9.372;2023-08-31T09:50:54;14.536415160266916;;;14.562;100.0
15558;BME280;7880;50.110;9.372;2023-08-31T09:55:58;14.309501438238659;;;14.312;100.0
15558;BME280;7880;50.110;9.372;2023-08-31T10:01:05;14.687691302370514;;;14.5;100.0
15558;BME280;7880;50.110;9.372;2023-08-31T10:04:58;15.010414614301407;;;14.75;100.0
15558;BME280;7880;50.110;9.372;2023-08-31T10:10:10;15.171776717301691;;;15.062;100.0
15558;BME280;7880;50.110;9.372;2023-08-31T10:15:11;15.464246288599679;;;15.437;100.0
15558;BME280;7880;50.110;9.372;2023-08-31T10:20:17;15.252457880560542;;;15.25;100.0
15558;BME280;7880;50.110;9.372;2023-08-31T10:25:23;14.6776062180812;;;14.812;100.0
15558;BME280;7880;50.110;9.372;2023-08-31T10:30:26;14.707861474441597;;;14.687;100.0
15558;BME280;7880;50.110;9.372;2023-08-31T10:35:41;14.566670367732877;;;14.562;100.0
15558;BME280;7880;50.110;9.372;2023-08-31T10:40:34;14.440607072412968;;;14.437;100.0
15558;BME280;7880;50.110;9.372;2023-08-31T10:45:43;14.203608569648349;;;14.187;100.0
15558;BME280;7880;50.110;9.372;2023-08-31T10:50:42;14.067460784339346;;;14.062;100.0
15558;BME280;7880;50.110;9.372;2023-08-31T10:55:51;14.112843355868245;;;14.0;100.0
15558;BME280;7880;50.110;9.372;2023-08-31T11:00:57;14.02207823638455;;;14.0;100.0
15558;BME280;7880;50.110;9.372;2023-08-31T11:05:58;13.890973230270902;;;13.875;100.0
15558;BME280;7880;50.110;9.372;2023-08-31T11:11:03;14.228821145766414;;;14.125;100.0
15558;BME280;7880;50.110;9.372;2023-08-31T11:16:08;14.364969182532514;;;14.187;100.0
15558;BME280;7880;50.110;9.372;2023-08-31T11:21:15;14.314543958992;;;14.312;100.0
15558;BME280;7880;50.110;9.372;2023-08-31T11:26:31;14.243948694929713;;;14.187;100.0
15558;BME280;7880;50.110;9.372;2023-08-31T11:31:23;14.465819716925035;;;14.312;100.0
15558;BME280;7880;50.110;9.372;2023-08-31T11:36:27;14.364969182532514;;;14.312;100.0
15558;BME280;7880;50.110;9.372;2023-08-31T11:41:37;15.106223327014595;;;14.875;100.0
15558;BME280;7880;50.110;9.372;2023-08-31T11:46:35;14.929733674559975;;;14.812;100.0
15558;BME280;7880;50.110;9.372;2023-08-31T11:51:41;15.136478731804527;;;15.0;100.0
15558;BME280;7880;50.110;9.372;2023-08-31T11:56:46;15.186904429737478;;;15.125;100.0
15558;BME280;7880;50.110;9.372;2023-08-31T12:01:50;15.378522347309627;;;15.25;100.0
15558;BME280;7880;50.110;9.372;2023-08-31T12:07:02;15.706290812144289;;;15.562;100.0
15558;BME280;7880;50.110;9.372;2023-08-31T12:12:00;15.756716838950524;;;15.687;100.0
15558;BME280;7880;50.110;9.372;2023-08-31T12:17:06;15.504586995957652;;;15.437;100.0
15558;BME280;7880;50.110;9.372;2023-08-31T12:22:13;15.474331463692943;;;15.375;100.0
15558;BME280;7880;50.110;9.372;2023-08-31T12:27:11;15.277670759358443;;;15.312;100.0
15558;BME280;7880;50.110;9.372;2023-08-31T12:32:20;15.030584860878298;;;15.062;100.0
15558;BME280;7880;50.110;9.372;2023-08-31T12:37:25;14.788542209292064;;;14.812;100.0
15558;BME280;7880;50.110;9.372;2023-08-31T12:42:32;14.304458917776355;;;14.375;100.0
15558;BME280;7880;50.110;9.372;2023-08-31T12:47:40;14.657436052995035;;;14.5;100.0
15558;BME280;7880;50.110;9.372;2023-08-31T12:52:45;14.692733844951727;;;14.562;100.0
15558;BME280;7880;50.110;9.372;2023-08-31T12:57:50;14.818797504069517;;;14.687;100.0
15558;BME280;7880;50.110;9.372;2023-08-31T13:02:52;14.783499661181121;;;14.687;100.0
15558;BME280;7880;50.110;9.372;2023-08-31T13:07:59;14.990244372381131;;;14.812;100.0
15558;BME280;7880;50.110;9.372;2023-08-31T13:13:06;15.091095628548647;;;15.0;100.0
15558;BME280;7880;50.110;9.372;2023-08-31T13:18:04;15.10118076056824;;;15.0;100.0
15558;BME280;7880;50.110;9.372;2023-08-31T13:23:09;15.207074717059731;;;15.062;100.0
15558;BME280;7880;50.110;9.372;2023-08-31T13:28:14;15.247415305674076;;;15.187;100.0
15558;BME280;7880;50.110;9.372;2023-08-31T13:33:18;15.363394601695472;;;15.25;100.0
15558;BME280;7880;50.110;9.372;2023-08-31T13:38:23;15.282713335991138;;;15.187;100.0
15558;BME280;7880;50.110;9.372;2023-08-31T13:43:42;15.36843718327582;;;15.25;100.0
15558;BME280;7880;50.110;9.372;2023-08-31T13:48:31;15.499544406519272;;;15.375;100.0
15558;BME280;7880;50.110;9.372;2023-08-31T13:53:37;15.665950011654058;;;15.5;100.0
15558;BME280;7880;50.110;9.372;2023-08-31T13:58:39;15.988676937116542;;;15.875;100.0
15558;BME280;7880;50.110;9.372;2023-08-31T14:03:46;15.877739422029117;;;15.75;100.0
15558;BME280;7880;50.110;9.372;2023-08-31T14:08:48;15.938250776432687;;;15.812;100.0
15558;BME280;7880;50.110;9.372;2023-08-31T14:14:02;16.15508347386494;;;16.0;100.0
15558;BME280;7880;50.110;9.372;2023-08-31T14:18:57;16.205509759695268;;;16.062;100.0
15558;BME280;7880;50.110;9.372;2023-08-31T14:24:07;16.32653296443168;;;16.125;100.0
15558;BME280;7880;50.110;9.372;2023-08-31T14:29:30;17.05267571324948;;;16.812;100.0
15558;BME280;7880;50.110;9.372;2023-08-31T14:34:38;17.11318788139615;;;17.0;100.0
15558;BME280;7880;50.110;9.372;2023-08-31T14:39:41;16.845926121628146;;;16.875;100.0
15558;BME280;7880;50.110;9.372;2023-08-31T14:44:45;16.689603584469296;;;16.687;97.6504589124006
15558;BME280;7880;50.110;9.372;2023-08-31T14:49:49;16.740030178800225;;;16.687;100.0
15558;BME280;7880;50.110;9.372;2023-08-31T14:54:51;16.8156701248663;;;16.75;100.0
15558;BME280;7880;50.110;9.372;2023-08-31T14:59:58;16.8560114562104;;;16.812;100.0
15558;BME280;7880;50.110;9.372;2023-08-31T15:05:00;16.916523488151142;;;16.812;96.17554896691637
15558;BME280;7880;50.110;9.372;2023-08-31T15:09:07;16.75011550115887;;;16.75;99.0945289510056
15558;BME280;7880;50.110;9.372;2023-08-31T15:14:11;16.593793135421585;;;16.562;100.0
15558;BME280;7880;50.110;9.372;2023-08-31T15:19:18;16.629091709689238;;;16.562;100.0
15558;BME280;7880;50.110;9.372;2023-08-31T15:24:20;16.402172552520643;;;16.375;100.0
15558;BME280;7880;50.110;9.372;2023-08-31T15:29:25;16.674475611845264;;;16.562;100.0
15558;BME280;7880;50.110;9.372;2023-08-31T15:34:35;16.53832397609949;;;16.5;100.0
15558;BME280;7880;50.110;9.372;2023-08-31T15:39:33;16.361831430724123;;;16.375;100.0
15558;BME280;7880;50.110;9.372;2023-08-31T15:44:40;16.51311073350371;;;16.437;100.0
15558;BME280;7880;50.110;9.372;2023-08-31T15:49:42;16.437471049372107;;;16.375;100.0
15558;BME280;7880;50.110;9.372;2023-08-31T15:54:57;16.497982791438698;;;16.437;100.0
15558;BME280;7880;50.110;9.372;2023-08-31T15:59:51;16.53832397609949;;;16.5;100.0
15558;BME280;7880;50.110;9.372;2023-08-31T16:04:55;16.674475611845264;;;16.625;100.0
15558;BME280;7880;50.110;9.372;2023-08-31T16:10:07;16.523196029668906;;;16.5;100.0
15558;BME280;7880;50.110;9.372;2023-08-31T16:15:10;16.624049055349314;;;16.562;100.0
15558;BME280;7880;50.110;9.372;2023-08-31T16:20:11;16.694646242592718;;;16.562;100.0
15558;BME280;7880;50.110;9.372;2023-08-31T16:25:18;16.714816877996782;;;16.625;100.0
15558;BME280;7880;50.110;9.372;2023-08-31T16:30:19;16.75515816277475;;;16.687;100.0
15558;BME280;7880;50.110;9.372;2023-08-31T16:35:24;16.523196029668906;;;16.562;100.0
15558;BME280;7880;50.110;9.372;2023-08-31T16:40:28;16.412257835880155;;;16.437;100.0
15558;BME280;7880;50.110;9.372;2023-08-31T16:45:36;16.235765545163304;;;16.25;100.0
15558;BME280;7880;50.110;9.372;2023-08-31T16:50:39;16.205509759695268;;;16.187;100.0
15558;BME280;7880;50.110;9.372;2023-08-31T16:55:44;15.988676937116542;;;16.0;100.0
15558;BME280;7880;50.110;9.372;2023-08-31T17:00:48;15.907995093992213;;;15.937;100.0
15558;BME280;7880;50.110;9.372;2023-08-31T17:05:58;15.827313325373689;;;15.875;100.0
15558;BME280;7880;50.110;9.372;2023-08-31T17:11:03;15.560055498988367;;;15.562;100.0
15558;BME280;7880;50.110;9.372;2023-08-31T17:16:08;15.50962958568707;;;15.562;100.0
15558;BME280;7880;50.110;9.372;2023-08-31T17:21:09;15.272628183016787;;;15.375;100.0
15558;BME280;7880;50.110;9.372;2023-08-31T17:26:21;15.217159862467089;;;15.25;100.0
15558;BME280;7880;50.110;9.372;2023-08-31T17:31:20;15.196989572816529;;;15.187;100.0
15558;BME280;7880;50.110;9.372;2023-08-31T17:36:30;15.050755112111801;;;15.062;100.0
15558;BME280;7880;50.110;9.372;2023-08-31T17:41:27;15.156649007485248;;;15.125;100.0
15558;BME280;7880;50.110;9.372;2023-08-31T17:46:31;15.091095628548647;;;15.062;100.0
15558;BME280;7880;50.110;9.372;2023-08-31T17:51:46;15.015457175509074;;;15.0;100.0
15558;BME280;7880;50.110;9.372;2023-08-31T17:56:43;14.970074135117466;;;14.937;100.0
15558;BME280;7880;50.110;9.372;2023-08-31T18:01:48;14.904520896170288;;;14.937;100.0
15558;BME280;7880;50.110;9.372;2023-08-31T18:06:52;14.788542209292064;;;14.812;100.0
15558;BME280;7880;50.110;9.372;2023-08-31T18:11:55;14.707861474441597;;;14.812;100.0
15558;BME280;7880;50.110;9.372;2023-08-31T18:16:59;14.556585297413402;;;14.625;100.0
15558;BME280;7880;50.110;9.372;2023-08-31T18:22:04;14.400266856327653;;;14.5;100.0
15558;BME280;7880;50.110;9.372;2023-08-31T18:27:11;14.304458917776355;;;14.375;100.0
15558;BME280;7880;50.110;9.372;2023-08-31T18:32:19;14.28428883883753;;;14.312;100.0
15558;BME280;7880;50.110;9.372;2023-08-31T18:37:21;14.032163245003904;;;14.125;100.0
15558;BME280;7880;50.110;9.372;2023-08-31T18:42:25;14.097715829405933;;;14.187;100.0
15558;BME280;7880;50.110;9.372;2023-08-31T18:47:31;14.09267332116724;;;14.187;100.0
15558;BME280;7880;50.110;9.372;2023-08-31T18:52:35;13.860718256799737;;;14.0;100.0
15558;BME280;7880;50.110;9.372;2023-08-31T18:57:54;13.759868420899148;;;13.875;100.0
15558;BME280;7880;50.110;9.372;2023-08-31T19:02:43;14.037205749750138;;;14.0;100.0
15558;BME280;7880;50.110;9.372;2023-08-31T19:07:47;14.082588305562968;;;14.062;100.0
15558;BME280;7880;50.110;9.372;2023-08-31T19:13:07;14.289331358135678;;;14.312;100.0
15558;BME280;7880;50.110;9.372;2023-08-31T19:17:59;14.183438513992588;;;14.187;100.0
15558;BME280;7880;50.110;9.372;2023-08-31T19:23:04;14.062418277846882;;;14.187;100.0
15558;BME280;7880;50.110;9.372;2023-08-31T19:28:12;14.193523541238392;;;14.187;100.0
15558;BME280;7880;50.110;9.372;2023-08-31T19:33:14;14.178396000806242;;;14.125;100.0
15558;BME280;7880;50.110;9.372;2023-08-31T19:38:23;14.178396000806242;;;14.125;100.0
15558;BME280;7880;50.110;9.372;2023-08-31T19:43:24;14.102758337935665;;;14.125;100.0
15558;BME280;7880;50.110;9.372;2023-08-31T19:48:28;14.006950725638308;;;14.0;100.0
15558;BME280;7880;50.110;9.372;2023-08-31T19:53:33;14.117885865271091;;;14.125;100.0
15558;BME280;7880;50.110;9.372;2023-08-31T19:58:45;14.01199322892935;;;14.062;100.0
15558;BME280;7880;50.110;9.372;2023-08-31T20:03:42;14.173353487910935;;;14.125;100.0
15558;BME280;7880;50.110;9.372;2023-08-31T20:08:46;14.248991211899556;;;14.25;100.0
15558;BME280;7880;50.110;9.372;2023-08-31T20:13:15;14.28428883883753;;;14.25;100.0
15558;BME280;7880;50.110;9.372;2023-08-31T20:18:21;14.28428883883753;;;14.312;100.0
15558;BME280;7880;50.110;9.372;2023-08-31T20:23:27;14.254033729160437;;;14.25;100.0
15558;BME280;7880;50.110;9.372;2023-08-31T20:28:32;14.223778629960725;;;14.187;100.0
15558;BME280;7880;50.110;9.372;2023-08-31T20:33:34;14.223778629960725;;;14.187;100.0
15558;BME280;7880;50.110;9.372;2023-08-31T20:38:38;14.112843355868245;;;14.062;100.0
15558;BME280;7880;50.110;9.372;2023-08-31T20:43:46;14.062418277846882;;;14.125;100.0
15558;BME280;7880;50.110;9.372;2023-08-31T20:48:50;14.122928374964976;;;14.062;100.0
15558;BME280;7880;50.110;9.372;2023-08-31T20:53:54;14.001908222638303;;;14.0;100.0
15558;BME280;7880;50.110;9.372;2023-08-31T20:58:58;13.99182321751141;;;13.937;100.0
15558;BME280;7880;50.110;9.372;2023-08-31T21:04:08;13.845590773993171;;;13.875;100.0
15558;BME280;7880;50.110;9.372;2023-08-31T21:09:06;13.865760751650669;;;13.875;100.0
15558;BME280;7880;50.110;9.372;2023-08-31T21:14:10;13.835505786910653;;;13.875;100.0
15558;BME280;7880;50.110;9.372;2023-08-31T21:19:14;13.734655980113894;;;13.687;100.0
15558;BME280;7880;50.110;9.372;2023-08-31T21:24:22;13.669103668123716;;;13.625;100.0
15558;BME280;7880;50.110;9.372;2023-08-31T21:29:22;13.674146151915192;;;13.625;100.0
15558;BME280;7880;50.110;9.372;2023-08-31T21:34:26;13.578339009644697;;;13.562;100.0
15558;BME280;7880;50.110;9.372;2023-08-31T21:39:30;13.653976218495519;;;13.625;100.0
15558;BME280;7880;50.110;9.372;2023-08-31T21:44:35;13.664061184623279;;;13.625;100.0
15558;BME280;7880;50.110;9.372;2023-08-31T21:49:39;13.603551405319013;;;13.562;100.0
15558;BME280;7880;50.110;9.372;2023-08-31T21:54:45;13.618678846216062;;;13.625;100.0
15558;BME280;7880;50.110;9.372;2023-08-31T21:59:48;13.739698467688868;;;13.687;100.0
15558;BME280;7880;50.110;9.372;2023-08-31T22:04:54;13.815335816238075;;;13.75;100.0
15558;BME280;7880;50.110;9.372;2023-08-31T22:09:58;13.800208341289544;;;13.75;100.0
15558;BME280;7880;50.110;9.372;2023-08-31T22:15:03;13.810293324297527;;;13.875;100.0
15558;BME280;7880;50.110;9.372;2023-08-31T22:20:09;13.699358575238147;;;13.812;100.0
15558;BME280;7880;50.110;9.372;2023-08-31T22:25:14;13.628763808269287;;;13.75;100.0
15558;BME280;7880;50.110;9.372;2023-08-31T22:30:21;13.648933735868194;;;13.687;100.0
15558;BME280;7880;50.110;9.372;2023-08-31T22:35:24;13.623721327097154;;;13.687;100.0
15558;BME280;7880;50.110;9.372;2023-08-31T22:40:27;13.553126621246339;;;13.687;100.0
15558;BME280;7880;50.110;9.372;2023-08-31T22:45:36;13.543041667924262;;;13.625;100.0
15558;BME280;7880;50.110;9.372;2023-08-31T22:50:36;13.517829289712244;;;13.562;100.0
15558;BME280;7880;50.110;9.372;2023-08-31T22:55:43;13.628763808269287;;;13.687;100.0
15558;BME280;7880;50.110;9.372;2023-08-31T23:00:44;13.507744340464706;;;13.562;100.0
15558;BME280;7880;50.110;9.372;2023-08-31T23:05:55;13.497659392381319;;;13.562;100.0
15558;BME280;7880;50.110;9.372;2023-08-31T23:11:03;13.54808414443978;;;13.562;100.0
15558;BME280;7880;50.110;9.372;2023-08-31T23:16:09;13.497659392381319;;;13.5;100.0
15558;BME280;7880;50.110;9.372;2023-08-31T23:21:11;13.573296531382947;;;13.562;100.0
15558;BME280;7880;50.110;9.372;2023-08-31T23:26:13;13.558169098343933;;;13.562;100.0
15558;BME280;7880;50.110;9.372;2023-08-31T23:31:18;13.457319611689309;;;13.5;100.0
15558;BME280;7880;50.110;9.372;2023-08-31T23:36:43;13.477489499707008;;;13.5;100.0
15558;BME280;7880;50.110;9.372;2023-08-31T23:41:28;13.416979849623749;;;13.437;100.0
15558;BME280;7880;50.110;9.372;2023-08-31T23:46:32;13.361512707197107;;;13.375;100.0
15558;BME280;7880;50.110;9.372;2023-08-31T23:51:40;13.411937380675226;;;13.437;100.0